KFKL/FKL METAR and TAF weather

Enter ICAO airport designator
Station Type Date Time Source
KFKL METAR 2019/09/21 04:56 UTC NOAA

KFKL 210456Z AUTO 00000KT 10SM CLR 14/14 A3024 RMK AO2 SLP237 T01440139 402610083


Station Type Date Time Source
KFKL Decoded METAR 2019/09/21 04:56 UTC NOAA

Franklin, Venango Regional Airport, PA, United States (KFKL) 41-23N 079-52W
Sep 21, 2019 - 12:56 AM EDT / 2019.09.21 0456 UTC
Wind: Calm:0
Visibility: 10 mile(s):0
Sky conditions: clear
Temperature: 57.9 F (14.4 C)
Dew Point: 57.0 F (13.9 C)
Relative Humidity: 96%
Pressure (altimeter): 30.24 in. Hg (1024 hPa)
ob: KFKL 210456Z AUTO 00000KT 10SM CLR 14/14 A3024 RMK AO2 SLP237 T01440139 402610083
cycle: 5

Station Type Date Time Source
KFKL TAF 2019/09/20 18:22 UTC NOAA

TAF KFKL 201720Z 2018/2118 19005KT P6SM FEW050
FM210900 16003KT P6SM SCT080
FM211300 17004KT P6SM BKN025

Example: see airport list